createdAt,value
2022-09-23T00:00:37.542Z,6.68
2022-09-23T00:03:04.477Z,7.53
2022-09-23T00:05:31.315Z,5.97
2022-09-23T00:07:58.322Z,6.75
2022-09-23T00:10:27.523Z,8.90
2022-09-23T00:12:54.938Z,7.15
2022-09-23T00:15:21.720Z,7.90
2022-09-23T00:17:48.192Z,10.63
2022-09-23T00:20:14.674Z,7.57
2022-09-23T00:22:41.142Z,8.38
2022-09-23T00:25:09.379Z,7.80
2022-09-23T00:27:38.075Z,6.95
2022-09-23T00:30:07.016Z,8.85
2022-09-23T00:32:34.192Z,7.03
2022-09-23T00:35:01.125Z,6.40
2022-09-23T00:37:31.168Z,8.00
2022-09-23T00:39:57.794Z,7.88
2022-09-23T00:42:24.646Z,8.93
2022-09-23T00:44:58.950Z,6.07
2022-09-23T00:47:47.453Z,10.20
2022-09-23T00:50:17.294Z,10.70
2022-09-23T00:52:44.171Z,7.70
2022-09-23T00:55:15.601Z,7.15
2022-09-23T00:57:44.511Z,6.78
2022-09-23T01:00:11.469Z,7.30
2022-09-23T01:02:38.216Z,8.88
2022-09-23T01:05:06.577Z,9.52
2022-09-23T01:07:33.643Z,7.68
2022-09-23T01:10:00.959Z,8.50
2022-09-23T01:12:44.883Z,9.52
2022-09-23T01:15:20.269Z,8.35
2022-09-23T01:18:09.791Z,8.13
2022-09-23T01:20:48.486Z,8.20
2022-09-23T01:23:37.957Z,10.35
2022-09-23T01:26:46.664Z,7.30
2022-09-23T01:29:25.263Z,9.30
2022-09-23T01:32:07.314Z,7.68
2022-09-23T01:34:37.594Z,8.90
2022-09-23T01:39:42.140Z,10.60
2022-09-23T01:42:18.694Z,7.38
2022-09-23T01:45:01.946Z,8.63
2022-09-23T01:47:36.034Z,8.43
2022-09-23T01:50:05.680Z,12.20
2022-09-23T01:52:39.201Z,9.73
2022-09-23T01:55:10.928Z,10.93
2022-09-23T01:57:47.106Z,11.07
2022-09-23T02:00:18.551Z,9.63
2022-09-23T02:02:52.382Z,8.63
2022-09-23T02:05:22.240Z,10.68
2022-09-23T02:07:58.887Z,7.70
2022-09-23T02:10:36.221Z,9.35
2022-09-23T02:13:08.756Z,13.05
2022-09-23T02:15:38.433Z,10.52
2022-09-23T02:18:34.355Z,10.38
2022-09-23T02:21:05.596Z,9.55
2022-09-23T02:23:35.717Z,9.63
2022-09-23T02:26:05.140Z,9.65
2022-09-23T02:28:43.733Z,10.93
2022-09-23T02:31:16.473Z,10.40
2022-09-23T02:33:55.656Z,11.30
2022-09-23T02:36:29.598Z,14.40
2022-09-23T02:38:59.302Z,11.85
2022-09-23T02:41:55.692Z,13.73
2022-09-23T02:44:22.698Z,14.15
2022-09-23T02:46:49.459Z,9.38
2022-09-23T02:49:23.016Z,13.90
2022-09-23T02:51:49.813Z,14.10
2022-09-23T02:54:19.149Z,11.80
2022-09-23T02:56:48.254Z,10.68
2022-09-23T02:59:14.899Z,12.52
2022-09-23T03:01:44.393Z,10.38
2022-09-23T03:04:29.691Z,10.25
2022-09-23T03:07:06.364Z,15.15
2022-09-23T03:09:41.702Z,10.55
2022-09-23T03:12:39.248Z,17.13
2022-09-23T03:15:19.393Z,14.32
2022-09-23T03:18:01.686Z,15.82
2022-09-23T03:20:43.726Z,17.08
2022-09-23T03:23:12.468Z,15.13
2022-09-23T03:25:40.451Z,14.55
2022-09-23T03:28:07.390Z,16.00
2022-09-23T03:30:36.778Z,16.42
2022-09-23T03:33:08.505Z,17.55
2022-09-23T03:35:37.240Z,19.20
2022-09-23T03:38:10.067Z,13.93
2022-09-23T03:40:40.586Z,14.68
2022-09-23T03:43:07.209Z,16.73
2022-09-23T03:45:34.518Z,11.07
2022-09-23T03:48:03.782Z,16.00
2022-09-23T03:50:30.348Z,12.05
2022-09-23T03:52:56.745Z,15.75
2022-09-23T03:55:23.201Z,18.70
2022-09-23T03:57:49.644Z,18.25
2022-09-23T04:00:16.856Z,17.48
2022-09-23T04:02:43.638Z,20.27
2022-09-23T04:05:11.410Z,18.08
2022-09-23T04:07:37.859Z,18.25
2022-09-23T04:10:05.562Z,16.67
2022-09-23T04:12:51.667Z,16.65
2022-09-23T04:15:18.202Z,15.15
2022-09-23T04:17:44.667Z,17.48
2022-09-23T04:20:12.147Z,17.45
2022-09-23T04:22:38.623Z,12.02
2022-09-23T04:25:05.523Z,21.92
2022-09-23T04:27:36.858Z,22.40
2022-09-23T04:30:04.548Z,18.77
2022-09-23T04:32:31.007Z,18.65
2022-09-23T04:34:57.480Z,19.75
2022-09-23T04:37:23.973Z,14.80
2022-09-23T04:39:50.459Z,20.60
2022-09-23T04:42:17.013Z,13.77
2022-09-23T04:44:43.468Z,17.63
2022-09-23T04:47:11.332Z,15.15
2022-09-23T04:49:37.779Z,19.25
2022-09-23T04:52:04.450Z,15.55
2022-09-23T04:54:31.088Z,17.35
2022-09-23T04:56:57.759Z,19.58
2022-09-23T04:59:24.265Z,18.27
2022-09-23T05:01:50.786Z,20.15
2022-09-23T05:04:17.613Z,23.58
2022-09-23T05:06:44.092Z,20.55
2022-09-23T05:09:16.445Z,21.20
2022-09-23T05:11:43.340Z,18.58
2022-09-23T05:14:09.818Z,18.75
2022-09-23T05:16:36.435Z,21.77
2022-09-23T05:19:03.092Z,18.15
2022-09-23T05:21:29.621Z,19.10
2022-09-23T05:23:57.160Z,18.23
2022-09-23T05:26:25.011Z,20.75
2022-09-23T05:28:51.789Z,19.30
2022-09-23T05:31:20.848Z,18.80
2022-09-23T05:33:49.418Z,20.77
2022-09-23T05:36:15.955Z,17.00
2022-09-23T05:38:42.585Z,21.23
2022-09-23T05:41:11.772Z,13.90
2022-09-23T05:43:38.470Z,14.20
2022-09-23T05:46:11.054Z,17.27
2022-09-23T05:48:38.361Z,17.23
2022-09-23T05:51:06.395Z,17.02
2022-09-23T05:53:32.835Z,18.40
2022-09-23T05:55:59.320Z,13.70
2022-09-23T05:58:25.840Z,14.02
2022-09-23T06:00:52.289Z,11.82
2022-09-23T06:03:20.247Z,14.00
2022-09-23T06:05:47.306Z,12.20
2022-09-23T06:08:14.290Z,15.77
2022-09-23T06:10:43.028Z,14.52
2022-09-23T06:13:09.797Z,15.63
2022-09-23T06:15:36.576Z,11.63
2022-09-23T06:18:03.741Z,16.63
2022-09-23T06:20:30.207Z,11.48
2022-09-23T06:23:05.168Z,12.15
2022-09-23T06:25:34.003Z,15.05
2022-09-23T06:28:00.575Z,14.48
2022-09-23T06:30:27.312Z,10.00
2022-09-23T06:32:55.460Z,14.15
2022-09-23T06:35:27.562Z,11.20
2022-09-23T06:37:54.786Z,10.07
2022-09-23T06:40:22.123Z,9.43
2022-09-23T06:42:52.261Z,11.05
2022-09-23T06:45:18.915Z,9.25
2022-09-23T06:47:45.381Z,8.65
2022-09-23T06:50:12.004Z,10.70
2022-09-23T06:52:39.261Z,11.50
2022-09-23T06:55:06.560Z,10.82
2022-09-23T06:57:34.118Z,8.65
2022-09-23T07:00:00.701Z,8.32
2022-09-23T07:02:28.065Z,8.45
2022-09-23T07:04:54.723Z,11.40
2022-09-23T07:07:21.165Z,9.32
2022-09-23T07:09:47.708Z,9.00
2022-09-23T07:12:14.139Z,9.25
2022-09-23T07:14:40.613Z,8.77
2022-09-23T07:17:07.062Z,8.63
2022-09-23T07:19:33.523Z,6.32
2022-09-23T07:21:59.982Z,6.83
2022-09-23T07:24:26.465Z,5.35
2022-09-23T07:26:52.923Z,4.77
2022-09-23T07:29:19.442Z,6.53
2022-09-23T07:31:45.990Z,9.40
2022-09-23T07:34:12.655Z,7.50
2022-09-23T07:36:39.786Z,8.70
2022-09-23T07:39:08.439Z,6.30
2022-09-23T07:41:35.003Z,5.13
2022-09-23T07:44:01.723Z,4.97
2022-09-23T07:46:31.023Z,6.60
2022-09-23T07:48:58.152Z,4.93
2022-09-23T07:51:30.805Z,5.00
2022-09-23T07:53:59.909Z,5.10
2022-09-23T07:56:28.663Z,5.33
2022-09-23T07:58:55.485Z,8.40
2022-09-23T08:01:21.955Z,4.33
2022-09-23T08:03:48.462Z,4.20
2022-09-23T08:06:14.922Z,6.63
2022-09-23T08:08:41.534Z,5.10
2022-09-23T08:11:09.547Z,6.80
2022-09-23T08:13:36.263Z,5.27
2022-09-23T08:16:03.057Z,4.13
2022-09-23T08:18:29.658Z,6.20
2022-09-23T08:20:56.129Z,4.33
2022-09-23T08:23:22.583Z,5.33
2022-09-23T08:25:49.033Z,10.83
2022-09-23T08:28:16.339Z,4.07
2022-09-23T08:30:44.130Z,5.87
2022-09-23T08:33:14.229Z,4.27
2022-09-23T08:35:41.222Z,5.80
2022-09-23T08:38:07.943Z,4.53
2022-09-23T08:40:39.806Z,3.57
2022-09-23T08:43:07.727Z,4.47
2022-09-23T08:45:35.614Z,4.97
2022-09-23T08:48:10.765Z,5.60
2022-09-23T08:50:42.142Z,4.17
2022-09-23T08:53:23.908Z,4.25
2022-09-23T08:55:51.840Z,5.53
2022-09-23T08:58:36.987Z,3.67
2022-09-23T09:01:26.618Z,8.13
2022-09-23T09:03:58.431Z,8.00
2022-09-23T09:06:52.517Z,3.80
2022-09-23T09:09:19.787Z,4.17
2022-09-23T09:11:48.757Z,4.07
2022-09-23T09:14:23.668Z,4.30
2022-09-23T09:17:08.627Z,4.57
2022-09-23T09:19:55.844Z,4.37
2022-09-23T09:22:28.339Z,6.43
2022-09-23T09:25:01.484Z,5.83
2022-09-23T09:27:27.919Z,8.43
2022-09-23T09:29:54.552Z,4.87
2022-09-23T09:32:36.329Z,7.37
2022-09-23T09:35:11.242Z,9.07
2022-09-23T09:37:43.370Z,6.13
2022-09-23T09:40:14.067Z,4.47
2022-09-23T09:42:41.653Z,6.70
2022-09-23T09:45:21.395Z,3.70
2022-09-23T09:47:56.814Z,5.28
2022-09-23T09:50:55.657Z,7.33
2022-09-23T09:53:27.693Z,3.63
2022-09-23T09:56:10.042Z,4.27
2022-09-23T09:58:49.614Z,4.63
2022-09-23T10:01:24.390Z,5.60
2022-09-23T10:03:56.922Z,4.63
2022-09-23T10:06:30.790Z,7.43
2022-09-23T10:09:16.249Z,5.50
2022-09-23T10:12:02.102Z,3.63
2022-09-23T10:14:28.663Z,5.53
2022-09-23T10:17:03.420Z,4.70
2022-09-23T10:19:30.116Z,4.30
2022-09-23T10:21:58.735Z,4.70
2022-09-23T10:24:33.557Z,7.10
2022-09-23T10:27:03.588Z,6.20
2022-09-23T10:32:20.691Z,2.88
2022-09-23T10:34:51.428Z,4.07
2022-09-23T10:37:40.321Z,3.57
2022-09-23T10:40:37.716Z,6.20
2022-09-23T10:43:07.922Z,6.37
2022-09-23T10:45:41.206Z,4.80
2022-09-23T10:48:21.325Z,4.07
2022-09-23T10:50:49.451Z,5.03
2022-09-23T10:53:42.239Z,5.03
2022-09-23T10:57:01.326Z,4.27
2022-09-23T10:59:49.601Z,4.45
2022-09-23T11:02:50.979Z,3.50
2022-09-23T11:05:54.519Z,4.23
2022-09-23T11:08:39.138Z,5.67
2022-09-23T11:11:17.632Z,5.50
2022-09-23T11:14:03.802Z,5.97
2022-09-23T11:16:55.423Z,4.27
2022-09-23T11:19:54.776Z,6.40
2022-09-23T11:22:30.245Z,4.80
2022-09-23T11:25:29.140Z,6.50
2022-09-23T11:28:14.409Z,3.90
2022-09-23T11:31:22.111Z,4.37
2022-09-23T11:33:59.707Z,4.53
2022-09-23T11:36:32.708Z,4.07
2022-09-23T11:39:01.450Z,8.67
2022-09-23T11:41:30.715Z,6.10
2022-09-23T11:44:12.484Z,5.43
2022-09-23T11:46:45.232Z,6.10
2022-09-23T11:49:15.570Z,5.43
2022-09-23T11:52:21.750Z,4.43
2022-09-23T11:55:15.965Z,8.23
2022-09-23T11:57:51.451Z,6.87
2022-09-23T12:00:25.414Z,8.40
2022-09-23T12:03:06.283Z,6.97
2022-09-23T12:05:38.294Z,6.17
2022-09-23T12:08:17.586Z,4.50
2022-09-23T12:10:43.994Z,6.70
2022-09-23T12:13:11.963Z,5.27
2022-09-23T12:16:00.583Z,6.30
2022-09-23T12:18:38.635Z,3.30
2022-09-23T12:21:33.070Z,6.37
2022-09-23T12:24:20.283Z,8.23
2022-09-23T12:26:51.086Z,9.27
2022-09-23T12:29:17.857Z,4.40
2022-09-23T12:31:46.755Z,5.13
2022-09-23T12:34:22.598Z,5.70
2022-09-23T12:36:50.351Z,7.47
2022-09-23T12:39:21.734Z,5.33
2022-09-23T12:41:49.521Z,8.57
2022-09-23T12:44:52.849Z,4.87
2022-09-23T12:47:19.389Z,3.67
2022-09-23T12:49:45.848Z,6.47
2022-09-23T12:52:18.363Z,6.73
2022-09-23T12:54:49.591Z,7.03
2022-09-23T12:57:40.821Z,5.93
2022-09-23T13:00:07.167Z,5.60
2022-09-23T13:02:36.506Z,6.83
2022-09-23T13:05:09.212Z,4.32
2022-09-23T13:07:42.603Z,6.03
2022-09-23T13:10:16.660Z,4.60
2022-09-23T13:12:43.707Z,5.67
2022-09-23T13:15:17.851Z,7.03
2022-09-23T13:17:44.370Z,4.07
2022-09-23T13:20:19.984Z,3.17
2022-09-23T13:22:49.229Z,2.80
2022-09-23T13:25:24.125Z,4.43
2022-09-23T13:27:54.094Z,3.57
2022-09-23T13:30:26.117Z,11.23
2022-09-23T13:33:11.058Z,4.30
2022-09-23T13:35:40.799Z,7.83
2022-09-23T13:38:11.840Z,4.53
2022-09-23T13:40:38.791Z,4.73
2022-09-23T13:43:09.242Z,5.27
2022-09-23T13:45:40.863Z,3.40
2022-09-23T13:48:12.179Z,4.13
2022-09-23T13:50:39.615Z,4.03
2022-09-23T13:53:09.065Z,2.93
2022-09-23T13:55:36.639Z,2.97
2022-09-23T13:58:04.672Z,5.97
2022-09-23T14:00:36.525Z,4.40
2022-09-23T14:03:16.178Z,7.20
2022-09-23T14:05:42.994Z,4.00
2022-09-23T14:08:09.561Z,5.37
2022-09-23T14:10:36.075Z,2.90
2022-09-23T14:13:02.560Z,5.27
2022-09-23T14:15:29.033Z,4.00
2022-09-23T14:18:03.090Z,4.63
2022-09-23T14:20:29.563Z,4.67
2022-09-23T14:23:07.071Z,3.40
2022-09-23T14:25:34.282Z,5.00
2022-09-23T14:28:01.052Z,3.47
2022-09-23T14:30:27.708Z,4.70
2022-09-23T14:32:54.173Z,2.43
2022-09-23T14:35:26.310Z,4.47
2022-09-23T14:37:58.376Z,3.80
2022-09-23T14:40:27.276Z,6.23
2022-09-23T14:43:06.764Z,4.35
2022-09-23T14:45:38.771Z,3.47
2022-09-23T14:48:17.143Z,6.27
2022-09-23T14:50:48.531Z,4.73
2022-09-23T14:53:17.951Z,4.97
2022-09-23T14:55:45.491Z,3.03
2022-09-23T14:58:16.417Z,4.27
2022-09-23T15:00:57.135Z,7.17
2022-09-23T15:03:23.821Z,3.50
2022-09-23T15:05:51.898Z,4.87
2022-09-23T15:08:23.277Z,4.43
2022-09-23T15:10:50.129Z,3.77
2022-09-23T15:13:27.496Z,3.50
2022-09-23T15:15:54.668Z,3.83
2022-09-23T15:18:23.296Z,4.90
2022-09-23T15:20:50.907Z,5.37
2022-09-23T15:23:34.124Z,3.90
2022-09-23T15:26:10.113Z,2.53
2022-09-23T15:28:36.600Z,5.57
2022-09-23T15:31:03.250Z,4.90
2022-09-23T15:33:29.703Z,3.63
2022-09-23T15:35:56.207Z,5.70
2022-09-23T15:38:22.834Z,7.40
2022-09-23T15:40:49.372Z,5.93
2022-09-23T15:43:20.763Z,5.53
2022-09-23T15:45:59.592Z,3.73
2022-09-23T15:48:29.254Z,4.97
2022-09-23T15:50:55.738Z,3.97
2022-09-23T15:53:25.122Z,6.37
2022-09-23T15:55:51.872Z,8.85
2022-09-23T15:58:22.553Z,3.90
2022-09-23T16:00:54.952Z,5.70
2022-09-23T16:03:24.666Z,3.10
2022-09-23T16:05:51.872Z,6.60
2022-09-23T16:08:18.344Z,3.57
2022-09-23T16:10:44.904Z,3.37
2022-09-23T16:13:13.635Z,3.30
2022-09-23T16:15:42.585Z,4.28
2022-09-23T16:18:10.832Z,5.07
2022-09-23T16:20:40.004Z,3.63
2022-09-23T16:23:18.170Z,4.43
2022-09-23T16:25:44.701Z,7.27
2022-09-23T16:28:11.160Z,4.73
2022-09-23T16:30:37.584Z,4.20
2022-09-23T16:33:04.057Z,4.43
2022-09-23T16:35:31.543Z,3.00
2022-09-23T16:37:58.051Z,3.10
2022-09-23T16:40:25.069Z,5.80
2022-09-23T16:42:52.689Z,4.60
2022-09-23T16:45:20.516Z,3.77
2022-09-23T16:47:48.108Z,4.03
2022-09-23T16:50:19.101Z,4.47
2022-09-23T16:52:45.604Z,4.93
2022-09-23T16:55:13.400Z,4.20
2022-09-23T16:57:40.666Z,4.10
2022-09-23T17:00:11.518Z,4.10
2022-09-23T17:02:38.063Z,10.83
2022-09-23T17:05:04.968Z,5.60
2022-09-23T17:07:31.464Z,6.03
2022-09-23T17:09:57.984Z,5.43
2022-09-23T17:12:30.441Z,6.80
2022-09-23T17:14:56.914Z,3.57
2022-09-23T17:17:23.498Z,7.63
2022-09-23T17:19:49.991Z,4.70
2022-09-23T17:22:16.467Z,5.70
2022-09-23T17:24:42.940Z,5.03
2022-09-23T17:27:09.833Z,6.17
2022-09-23T17:29:37.651Z,4.47
2022-09-23T17:32:04.217Z,4.63
2022-09-23T17:34:31.288Z,5.83
2022-09-23T17:36:57.747Z,3.53
2022-09-23T17:39:25.370Z,10.97
2022-09-23T17:41:51.831Z,6.07
2022-09-23T17:44:18.321Z,9.03
2022-09-23T17:46:44.790Z,15.33
2022-09-23T17:49:11.256Z,7.53
2022-09-23T17:51:37.721Z,12.27
2022-09-23T17:54:04.235Z,5.83
2022-09-23T17:56:30.680Z,7.43
2022-09-23T17:59:00.195Z,5.23
2022-09-23T18:01:26.879Z,6.65
2022-09-23T18:03:58.031Z,7.73
2022-09-23T18:06:27.134Z,5.83
2022-09-23T18:08:54.378Z,5.80
2022-09-23T18:11:24.586Z,5.50
2022-09-23T18:13:52.379Z,5.27
2022-09-23T18:16:19.806Z,5.90
2022-09-23T18:18:50.952Z,7.20
2022-09-23T18:21:17.389Z,6.10
2022-09-23T18:23:43.870Z,6.77
2022-09-23T18:26:18.738Z,6.87
2022-09-23T18:28:45.427Z,8.23
2022-09-23T18:31:12.017Z,9.80
2022-09-23T18:33:38.531Z,10.03
2022-09-23T18:36:05.454Z,4.63
2022-09-23T18:38:34.948Z,8.63
2022-09-23T18:41:01.863Z,14.00
2022-09-23T18:43:35.895Z,11.57
2022-09-23T18:46:09.298Z,8.53
2022-09-23T18:48:35.825Z,9.85
2022-09-23T18:51:02.373Z,9.33
2022-09-23T18:53:28.924Z,9.70
2022-09-23T18:55:55.412Z,8.67
2022-09-23T18:58:21.861Z,6.43
2022-09-23T19:00:48.908Z,4.70
2022-09-23T19:03:18.678Z,8.63
2022-09-23T19:05:46.291Z,8.25
2022-09-23T19:08:12.755Z,4.97
2022-09-23T19:10:39.225Z,8.10
2022-09-23T19:13:05.689Z,5.30
2022-09-23T19:15:32.825Z,4.57
2022-09-23T19:17:59.274Z,7.53
2022-09-23T19:20:25.731Z,5.67
2022-09-23T19:22:53.271Z,5.87
2022-09-23T19:25:19.750Z,5.53
2022-09-23T19:27:46.288Z,5.57
2022-09-23T19:30:12.746Z,6.27
2022-09-23T19:32:39.206Z,5.80
2022-09-23T19:35:05.922Z,4.83
2022-09-23T19:37:32.361Z,6.07
2022-09-23T19:39:58.807Z,5.80
2022-09-23T19:42:25.291Z,9.00
2022-09-23T19:44:51.738Z,5.33
2022-09-23T19:47:18.232Z,4.57
2022-09-23T19:49:45.465Z,6.17
2022-09-23T19:52:14.255Z,7.83
2022-09-23T19:54:40.721Z,7.83
2022-09-23T19:57:07.185Z,10.83
2022-09-23T19:59:33.616Z,8.57
2022-09-23T20:02:00.260Z,12.50
2022-09-23T20:04:27.446Z,13.77
2022-09-23T20:06:54.489Z,10.67
2022-09-23T20:09:21.198Z,8.47
2022-09-23T20:11:50.653Z,5.40
2022-09-23T20:14:17.114Z,6.18
2022-09-23T20:16:43.662Z,7.23
2022-09-23T20:19:10.235Z,4.57
2022-09-23T20:21:36.851Z,5.10
2022-09-23T20:24:03.631Z,5.90
2022-09-23T20:26:30.631Z,5.50
2022-09-23T20:28:57.172Z,8.40
2022-09-23T20:31:23.811Z,5.00
2022-09-23T20:33:54.684Z,7.03
2022-09-23T20:36:21.276Z,5.27
2022-09-23T20:38:47.694Z,3.87
2022-09-23T20:41:14.165Z,5.07
2022-09-23T20:43:41.029Z,6.90
2022-09-23T20:46:07.609Z,4.87
2022-09-23T20:48:34.653Z,4.53
2022-09-23T20:51:04.990Z,7.47
2022-09-23T20:53:31.732Z,5.10
2022-09-23T20:55:59.774Z,5.53
2022-09-23T20:58:30.574Z,8.60
2022-09-23T21:01:01.586Z,5.00
2022-09-23T21:03:30.264Z,9.03
2022-09-23T21:05:59.988Z,7.60
2022-09-23T21:08:27.643Z,5.80
2022-09-23T21:10:56.126Z,5.77
2022-09-23T21:13:22.902Z,3.50
2022-09-23T21:15:50.281Z,5.40
2022-09-23T21:18:21.725Z,4.77
2022-09-23T21:20:58.725Z,4.10
2022-09-23T21:23:30.461Z,4.87
2022-09-23T21:26:01.929Z,4.23
2022-09-23T21:28:33.018Z,4.97
2022-09-23T21:31:05.247Z,5.03
2022-09-23T21:33:32.220Z,4.97
2022-09-23T21:35:59.979Z,5.30
2022-09-23T21:38:26.456Z,4.40
2022-09-23T21:41:01.553Z,6.93
2022-09-23T21:43:32.433Z,6.93
2022-09-23T21:46:00.855Z,5.20
2022-09-23T21:48:28.915Z,4.90
2022-09-23T21:50:59.214Z,5.17
2022-09-23T21:53:26.888Z,8.87
2022-09-23T21:55:53.350Z,6.57
2022-09-23T21:58:19.784Z,7.27
2022-09-23T22:00:46.405Z,6.80
2022-09-23T22:03:13.125Z,5.93
2022-09-23T22:05:39.603Z,4.77
2022-09-23T22:08:06.052Z,7.73
2022-09-23T22:10:33.268Z,7.73
2022-09-23T22:12:59.927Z,4.27
2022-09-23T22:15:26.368Z,4.43
2022-09-23T22:17:52.821Z,6.70
2022-09-23T22:20:20.034Z,6.97
2022-09-23T22:22:46.646Z,5.37
2022-09-23T22:25:13.320Z,5.47
2022-09-23T22:27:39.808Z,5.60
2022-09-23T22:30:08.396Z,7.73
2022-09-23T22:32:34.942Z,5.83
2022-09-23T22:35:01.787Z,3.63
2022-09-23T22:37:30.474Z,6.57
2022-09-23T22:39:57.026Z,6.83
2022-09-23T22:42:23.566Z,5.73
2022-09-23T22:44:51.153Z,8.40
2022-09-23T22:47:18.571Z,6.83
2022-09-23T22:49:46.147Z,5.10
2022-09-23T22:52:13.190Z,6.57
2022-09-23T22:54:39.658Z,7.90
2022-09-23T22:57:07.803Z,5.57
2022-09-23T22:59:34.796Z,4.17
2022-09-23T23:02:02.302Z,7.03
2022-09-23T23:04:29.983Z,5.07
2022-09-23T23:06:57.180Z,5.90
2022-09-23T23:09:23.652Z,8.33
2022-09-23T23:11:50.122Z,4.73
2022-09-23T23:14:18.169Z,8.30
2022-09-23T23:16:45.462Z,5.97
2022-09-23T23:19:14.722Z,6.43
2022-09-23T23:21:41.530Z,5.87
2022-09-23T23:24:14.802Z,5.90
2022-09-23T23:26:41.933Z,7.83
2022-09-23T23:29:11.089Z,5.13
2022-09-23T23:31:37.926Z,5.93
2022-09-23T23:34:05.239Z,5.30
2022-09-23T23:36:31.736Z,6.60
2022-09-23T23:38:58.649Z,6.70
2022-09-23T23:41:25.138Z,6.63
2022-09-23T23:43:57.681Z,7.27
2022-09-23T23:46:25.609Z,6.97
2022-09-23T23:48:53.342Z,5.90
2022-09-23T23:51:20.360Z,8.33
2022-09-23T23:53:47.290Z,8.90
2022-09-23T23:56:18.982Z,10.90
2022-09-23T23:58:45.805Z,5.83
